Time;durP1;ratioP1;P1;durP2;ratioP2;P2;SDS_P1;SDS_P2;PMS_P1;PMS_P2;Temp;Humidity;BMP_temperature;BMP_pressure;BME280_temperature;BME280_humidity;BME280_pressure;Samples;Min_cycle;Max_cycle;Signal;HPM_P1;HPM_P2
2023/03/01 05:29:30;;;;;;;5.97;2.45;;;10.40;58.60;;;;;;4822787;29;20065;-75
2023/03/01 05:31:58;;;;;;;11.07;2.40;;;10.50;59.50;;;;;;4828607;29;20097;-75
2023/03/01 05:34:25;;;;;;;7.45;2.88;;;10.60;59.90;;;;;;4828612;29;20102;-76
2023/03/01 05:36:54;;;;;;;8.48;2.83;;;10.70;59.90;;;;;;4828955;29;20046;-74
2023/03/01 05:39:22;;;;;;;7.13;1.80;;;10.90;60.50;;;;;;4812489;29;20057;-79
2023/03/01 05:41:51;;;;;;;8.82;2.20;;;11.10;59.50;;;;;;4827134;29;20050;-73
2023/03/01 05:44:17;;;;;;;6.00;1.92;;;11.20;59.40;;;;;;4812997;29;20454;-74
2023/03/01 05:46:43;;;;;;;9.80;1.83;;;11.50;59.60;;;;;;4828793;29;20061;-83
2023/03/01 05:49:08;;;;;;;6.60;1.92;;;11.70;59.40;;;;;;4813078;29;20038;-74
2023/03/01 05:51:34;;;;;;;9.02;1.77;;;11.90;59.50;;;;;;4828441;29;20096;-74
2023/03/01 05:54:00;;;;;;;5.70;1.40;;;12.10;57.70;;;;;;4828369;29;20046;-73
2023/03/01 05:56:25;;;;;;;5.05;2.05;;;12.20;58.80;;;;;;4828479;29;20055;-74
2023/03/01 05:58:51;;;;;;;9.38;2.53;;;12.40;59.30;;;;;;4825939;29;20054;-76
2023/03/01 06:01:17;;;;;;;11.90;2.40;;;12.40;59.30;;;;;;4827239;29;20058;-76
2023/03/01 06:03:42;;;;;;;10.57;2.28;;;12.60;59.60;;;;;;4827502;29;20051;-75
2023/03/01 06:06:08;;;;;;;11.25;1.92;;;12.70;59.90;;;;;;4828108;29;20042;-75
2023/03/01 06:08:34;;;;;;;17.63;2.38;;;12.80;60.00;;;;;;4812691;29;20111;-75
2023/03/01 06:11:00;;;;;;;12.70;2.22;;;12.90;59.80;;;;;;4829540;29;20121;-75
2023/03/01 06:13:25;;;;;;;12.93;2.03;;;13.00;60.10;;;;;;4828170;29;20130;-75
2023/03/01 06:15:51;;;;;;;17.38;2.40;;;13.10;59.90;;;;;;4827743;29;20042;-75
2023/03/01 06:18:17;;;;;;;13.23;2.50;;;13.20;59.70;;;;;;4829018;29;20058;-76
2023/03/01 06:20:43;;;;;;;16.02;2.95;;;13.30;59.30;;;;;;4846256;29;20086;-76
2023/03/01 06:23:09;;;;;;;11.07;2.58;;;13.30;59.20;;;;;;4826672;29;20481;-76
2023/03/01 06:25:34;;;;;;;18.95;2.60;;;13.40;59.10;;;;;;4827566;29;20082;-77
2023/03/01 06:28:00;;;;;;;13.55;2.45;;;13.50;59.40;;;;;;4827912;29;20372;-76
2023/03/01 06:30:26;;;;;;;22.10;3.10;;;13.50;59.40;;;;;;4811867;29;20051;-78
2023/03/01 06:33:00;;;;;;;13.30;2.40;;;13.40;56.40;;;;;;4794053;29;20046;-77
2023/03/01 06:35:29;;;;;;;11.50;2.20;;;13.60;59.40;;;;;;4824239;29;20051;-76
2023/03/01 06:37:55;;;;;;;11.77;2.25;;;13.70;59.60;;;;;;4827749;29;20046;-77
2023/03/01 06:40:21;;;;;;;16.02;2.65;;;13.70;59.70;;;;;;4827592;29;20053;-77
2023/03/01 06:42:50;;;;;;;16.33;3.25;;;13.80;59.70;;;;;;4827813;29;20046;-76
2023/03/01 06:45:20;;;;;;;10.05;2.80;;;13.90;59.60;;;;;;4827014;29;20046;-76
2023/03/01 06:47:46;;;;;;;13.52;1.83;;;14.00;59.50;;;;;;4826695;29;20054;-76
2023/03/01 06:50:14;;;;;;;15.23;2.25;;;14.00;59.40;;;;;;4827392;29;20053;-76
2023/03/01 06:52:39;;;;;;;10.57;1.70;;;14.10;59.30;;;;;;4827370;29;20339;-77
2023/03/01 06:55:06;;;;;;;10.00;1.88;;;14.10;59.20;;;;;;4826923;29;20061;-75
2023/03/01 06:57:35;;;;;;;8.50;1.52;;;14.10;59.30;;;;;;4811661;29;20169;-79
2023/03/01 07:00:00;;;;;;;14.93;2.10;;;14.20;59.60;;;;;;4825954;29;20369;-74
2023/03/01 07:02:26;;;;;;;13.40;2.10;;;14.20;59.70;;;;;;4826630;29;20045;-75
2023/03/01 07:04:52;;;;;;;17.80;2.50;;;14.30;60.00;;;;;;4826974;29;20042;-74
2023/03/01 07:07:18;;;;;;;13.38;1.98;;;14.40;60.30;;;;;;4826399;29;20331;-77
2023/03/01 07:09:48;;;;;;;14.70;2.10;;;14.40;60.40;;;;;;4826666;29;20057;-74
2023/03/01 07:12:14;;;;;;;13.35;2.08;;;14.40;60.60;;;;;;4825179;29;20133;-75
2023/03/01 07:14:40;;;;;;;4.85;2.10;;;14.50;59.90;;;;;;4827294;29;20129;-77
2023/03/01 07:17:06;;;;;;;6.90;2.33;;;14.50;56.40;;;;;;4827106;29;20362;-75
2023/03/01 07:19:32;;;;;;;12.30;3.70;;;14.40;53.20;;;;;;4827857;29;20390;-75
2023/03/01 07:21:57;;;;;;;12.25;2.65;;;14.40;51.90;;;;;;4827196;29;20137;-75
2023/03/01 07:24:23;;;;;;;11.63;2.22;;;14.40;52.40;;;;;;4826073;29;20050;-75
2023/03/01 07:26:53;;;;;;;11.98;2.60;;;14.30;51.60;;;;;;4810854;29;20054;-74
2023/03/01 07:29:19;;;;;;;12.55;2.53;;;14.30;53.60;;;;;;4810785;29;20062;-76
2023/03/01 07:31:45;;;;;;;14.98;2.55;;;14.40;54.00;;;;;;4826940;29;20054;-75
2023/03/01 07:34:11;;;;;;;13.20;2.75;;;14.50;54.40;;;;;;4827250;29;20050;-76
2023/03/01 07:36:39;;;;;;;15.93;2.13;;;14.50;54.80;;;;;;4827334;29;20069;-75
2023/03/01 07:39:05;;;;;;;22.25;2.88;;;14.60;55.40;;;;;;4826698;29;20057;-75
2023/03/01 07:41:30;;;;;;;11.13;2.60;;;14.60;55.50;;;;;;4826883;29;20046;-76
2023/03/01 07:43:56;;;;;;;23.92;3.22;;;14.70;55.80;;;;;;4826177;29;20415;-76
2023/03/01 07:46:22;;;;;;;25.35;2.88;;;14.70;56.20;;;;;;4828341;29;20146;-75
2023/03/01 07:48:47;;;;;;;28.48;4.07;;;14.70;56.10;;;;;;4829194;29;20076;-76
2023/03/01 07:51:14;;;;;;;18.73;2.60;;;14.80;56.30;;;;;;4844978;29;20430;-76
2023/03/01 07:53:39;;;;;;;30.63;3.50;;;14.80;56.30;;;;;;4830911;29;20064;-74
2023/03/01 07:56:13;;;;;;;22.38;3.70;;;14.90;57.10;;;;;;4826850;29;20133;-82
2023/03/01 07:58:51;;;;;;;23.58;3.45;;;14.90;56.80;;;;;;4809835;29;20056;-81
2023/03/01 08:01:19;;;;;;;21.65;4.50;;;14.90;56.50;;;;;;4809199;29;20066;-80
2023/03/01 08:03:46;;;;;;;30.65;3.58;;;14.90;56.20;;;;;;4812624;29;20050;-80
2023/03/01 08:06:14;;;;;;;17.40;3.22;;;15.00;56.00;;;;;;4809341;29;20061;-79
2023/03/01 08:08:40;;;;;;;23.77;3.58;;;14.90;55.80;;;;;;4825823;29;20053;-78
2023/03/01 08:11:07;;;;;;;18.27;3.10;;;14.90;55.80;;;;;;4824940;29;20466;-82
2023/03/01 08:13:33;;;;;;;15.45;3.13;;;14.90;55.80;;;;;;4810268;29;20053;-83
2023/03/01 08:16:07;;;;;;;28.08;3.35;;;14.80;55.90;;;;;;4825743;29;20094;-80
2023/03/01 08:18:33;;;;;;;21.77;3.05;;;14.80;56.00;;;;;;4795289;29;20058;-81
2023/03/01 08:21:06;;;;;;;19.08;3.75;;;14.80;56.10;;;;;;4811897;29;20110;-79
2023/03/01 08:23:32;;;;;;;;;;;14.70;54.30;;;;;;4839383;29;20046;-77
2023/03/01 08:26:06;;;;;;;15.45;3.42;;;14.60;53.40;;;;;;4844719;29;19931;-78
2023/03/01 08:28:32;;;;;;;22.45;4.55;;;14.50;54.40;;;;;;4844099;29;20087;-78
2023/03/01 08:30:57;;;;;;;17.42;3.25;;;14.40;54.70;;;;;;4827183;29;20141;-78
2023/03/01 08:33:26;;;;;;;20.27;3.33;;;14.40;55.00;;;;;;4828601;29;20132;-76
2023/03/01 08:35:52;;;;;;;12.60;4.30;;;14.40;55.10;;;;;;4844330;29;20446;-77
2023/03/01 08:38:17;;;;;;;7.28;5.00;;;14.40;53.00;;;;;;4834710;29;20102;-77
2023/03/01 08:40:43;;;;;;;8.00;4.88;;;14.40;50.20;;;;;;4827719;29;20054;-78
2023/03/01 08:43:09;;;;;;;8.27;4.90;;;14.30;49.30;;;;;;4844069;29;20342;-79
2023/03/01 08:45:35;;;;;;;7.05;4.60;;;14.20;49.70;;;;;;4844599;29;20046;-77
2023/03/01 08:48:00;;;;;;;11.02;5.05;;;14.10;49.70;;;;;;4842545;29;20057;-80
2023/03/01 08:50:57;;;;;;;7.80;4.32;;;14.20;49.90;;;;;;4844126;29;20126;-80
2023/03/01 09:09:14;;;;;;;;;;;;;;;;;;;;;
2023/03/01 09:11:40;;;;;;;9.02;3.28;;;14.60;52.10;;;;;;4769821;30;20063;-78
2023/03/01 09:14:06;;;;;;;7.05;3.42;;;14.70;51.90;;;;;;4793594;29;20054;-75
2023/03/01 09:16:35;;;;;;;13.57;4.55;;;14.70;51.80;;;;;;4837489;29;20058;-81
2023/03/01 09:19:37;;;;;;;6.07;3.55;;;14.80;51.90;;;;;;4798288;29;20073;-81
2023/03/01 09:22:41;;;;;;;11.10;4.40;;;14.80;51.60;;;;;;4768125;30;20188;-81
2023/03/01 09:26:05;;;;;;;6.88;4.32;;;14.90;51.30;;;;;;4756420;30;20039;-81
2023/03/01 09:28:31;;;;;;;9.65;4.32;;;14.90;51.00;;;;;;4740208;30;20496;-80
2023/03/01 09:31:01;;;;;;;6.95;4.70;;;15.00;50.80;;;;;;4754970;30;20052;-80
2023/03/01 09:33:28;;;;;;;8.05;4.43;;;15.00;50.20;;;;;;4740127;30;20511;-77
2023/03/01 09:36:23;;;;;;;8.65;5.40;;;15.00;50.20;;;;;;4753976;30;20044;-81
2023/03/01 09:38:52;;;;;;;10.00;5.47;;;15.00;49.80;;;;;;4759439;30;20107;-78
2023/03/01 09:41:21;;;;;;;10.20;4.80;;;15.00;49.60;;;;;;4810868;29;20051;-77
2023/03/01 09:43:54;;;;;;;9.02;4.88;;;14.90;49.60;;;;;;4806432;29;20218;-79
2023/03/01 09:46:22;;;;;;;8.65;4.40;;;14.90;49.60;;;;;;4806498;29;20058;-78
2023/03/01 09:48:56;;;;;;;9.38;4.20;;;14.80;49.90;;;;;;4807045;29;20046;-81
2023/03/01 09:51:41;;;;;;;13.23;4.20;;;14.90;50.20;;;;;;4821716;29;20050;-77
2023/03/01 09:54:10;;;;;;;16.38;3.78;;;14.70;51.90;;;;;;4814797;29;21642;-79
2023/03/01 09:56:53;;;;;;;12.95;3.45;;;14.80;51.70;;;;;;4817546;29;20110;-79
2023/03/01 09:59:21;;;;;;;11.05;3.22;;;14.90;52.00;;;;;;4808124;29;20058;-78
2023/03/01 10:02:26;;;;;;;12.45;3.47;;;15.00;52.20;;;;;;4808911;29;20084;-80
2023/03/01 10:04:57;;;;;;;11.13;2.70;;;15.00;52.60;;;;;;4802490;29;20447;-77
2023/03/01 10:07:41;;;;;;;13.88;2.88;;;15.10;52.70;;;;;;4792188;30;20483;-76
2023/03/01 10:10:08;;;;;;;17.25;3.85;;;15.20;53.00;;;;;;4791942;30;20123;-76
2023/03/01 10:12:39;;;;;;;22.20;4.07;;;15.20;53.30;;;;;;4792448;30;20054;-77
2023/03/01 10:15:32;;;;;;;24.15;4.20;;;15.10;53.60;;;;;;4797803;29;20099;-81
2023/03/01 10:18:07;;;;;;;22.40;4.03;;;15.20;54.10;;;;;;4809630;29;20054;-80
2023/03/01 10:20:45;;;;;;;28.33;4.10;;;15.10;54.30;;;;;;4793103;29;20111;-79
2023/03/01 10:23:11;;;;;;;18.83;3.72;;;15.00;55.00;;;;;;4812288;29;20170;-76
2023/03/01 10:25:55;;;;;;;21.92;6.88;;;15.00;54.90;;;;;;4811118;29;20089;-78
2023/03/01 10:28:40;;;;;;;18.60;6.90;;;15.00;54.20;;;;;;4810808;29;20050;-78
2023/03/01 10:31:31;;;;;;;15.32;7.00;;;14.90;52.80;;;;;;4827429;29;20366;-79
2023/03/01 10:39:08;;;;;;;12.13;5.53;;;14.60;51.40;;;;;;4789069;29;20050;-80
2023/03/01 11:12:41;;;;;;;;;;;;;;;;;;;;;
2023/03/01 11:19:10;;;;;;;8.07;3.85;;;14.00;54.90;;;;;;4697530;29;20049;-79
2023/03/01 12:30:27;;;;;;;2.67;1.35;;;13.70;56.90;;;;;;4806107;29;20058;-79
2023/03/01 12:32:57;;;;;;;3.80;1.55;;;13.60;57.00;;;;;;4807017;29;20115;-80
2023/03/01 12:36:04;;;;;;;3.55;1.60;;;13.70;57.20;;;;;;4807521;29;20189;-79
2023/03/01 12:39:00;;;;;;;3.45;1.55;;;13.60;57.10;;;;;;4772833;29;20069;-77
2023/03/01 12:42:12;;;;;;;2.55;1.60;;;13.60;57.10;;;;;;4806946;29;20135;-78
2023/03/01 12:44:41;;;;;;;3.22;1.73;;;13.60;57.20;;;;;;4767303;29;20134;-79
2023/03/01 12:47:22;;;;;;;3.15;1.88;;;13.50;57.30;;;;;;4791620;29;20089;-78
2023/03/01 12:49:54;;;;;;;3.15;1.85;;;13.50;57.50;;;;;;4791940;29;20057;-80
2023/03/01 12:52:40;;;;;;;4.05;2.05;;;13.50;57.50;;;;;;4806757;29;20055;-77
2023/03/01 12:55:24;;;;;;;1.98;1.17;;;13.50;58.20;;;;;;4792419;29;20439;-80
2023/03/01 12:58:02;;;;;;;3.30;1.38;;;13.50;57.60;;;;;;4791525;29;20083;-79
2023/03/01 13:00:35;;;;;;;3.15;1.30;;;13.50;57.70;;;;;;4792025;29;20051;-80
2023/03/01 13:03:18;;;;;;;3.38;1.27;;;13.50;57.60;;;;;;4795621;29;20371;-77
2023/03/01 13:06:21;;;;;;;1.33;1.20;;;13.50;57.70;;;;;;4795404;29;20049;-80
2023/03/01 13:08:53;;;;;;;3.00;1.10;;;13.50;57.70;;;;;;4792492;29;20054;-78
2023/03/01 13:11:21;;;;;;;2.13;1.45;;;13.40;57.70;;;;;;4777137;30;20100;-78
2023/03/01 13:13:48;;;;;;;2.38;1.30;;;13.40;57.80;;;;;;4792228;30;20055;-78
2023/03/01 13:16:37;;;;;;;3.33;1.55;;;13.40;57.80;;;;;;4777181;30;20118;-78
2023/03/01 13:19:15;;;;;;;2.67;1.40;;;13.40;57.60;;;;;;4787152;30;20059;-77
2023/03/01 13:21:43;;;;;;;1.90;1.15;;;13.40;57.80;;;;;;4791964;30;20124;-78
2023/03/01 13:24:28;;;;;;;2.10;1.20;;;13.40;57.80;;;;;;4777236;30;20536;-79
2023/03/01 13:27:06;;;;;;;1.55;1.10;;;13.40;57.50;;;;;;4777129;30;20050;-79
2023/03/01 13:29:50;;;;;;;2.90;1.27;;;13.30;57.60;;;;;;4791673;29;20059;-80
2023/03/01 13:32:20;;;;;;;2.40;0.90;;;13.30;57.60;;;;;;4792551;30;20051;-78
2023/03/01 13:34:49;;;;;;;1.60;1.20;;;13.30;57.80;;;;;;4777194;30;20078;-80
2023/03/01 13:37:46;;;;;;;1.80;1.08;;;13.30;57.80;;;;;;4787637;29;20370;-78
2023/03/01 13:40:22;;;;;;;2.92;1.30;;;13.30;57.70;;;;;;4767294;29;20498;-79
2023/03/01 13:42:49;;;;;;;2.87;1.43;;;13.30;58.30;;;;;;4785998;30;20122;-79
2023/03/01 13:45:39;;;;;;;2.05;1.08;;;13.30;59.00;;;;;;4777114;30;20083;-78
2023/03/01 13:48:16;;;;;;;2.70;1.30;;;13.40;58.90;;;;;;4777965;29;20503;-77
2023/03/01 13:50:53;;;;;;;1.20;1.10;;;13.40;58.50;;;;;;4806715;29;20060;-79
2023/03/01 13:53:22;;;;;;;2.47;1.40;;;13.30;58.90;;;;;;4793046;29;20058;-78
2023/03/01 13:55:54;;;;;;;2.10;1.23;;;13.40;58.80;;;;;;4792591;29;20078;-80
2023/03/01 13:58:27;;;;;;;2.75;1.27;;;13.30;58.80;;;;;;4793647;29;20050;-78
2023/03/01 14:01:05;;;;;;;3.05;1.20;;;13.30;58.80;;;;;;4808183;29;20112;-78
2023/03/01 14:03:33;;;;;;;2.53;1.00;;;13.30;58.90;;;;;;4787537;29;20058;-78
2023/03/01 14:06:15;;;;;;;1.88;1.17;;;13.30;59.10;;;;;;4793972;29;20055;-78
2023/03/01 14:08:41;;;;;;;2.05;1.02;;;13.30;59.40;;;;;;4808939;29;20131;-78
2023/03/01 14:11:19;;;;;;;1.98;1.30;;;13.30;59.30;;;;;;4808209;29;20043;-79
2023/03/01 14:13:47;;;;;;;1.98;1.13;;;13.30;59.60;;;;;;4792580;29;20058;-77
2023/03/01 14:16:25;;;;;;;3.00;1.60;;;13.20;59.60;;;;;;4794566;29;20051;-77
2023/03/01 14:18:54;;;;;;;2.08;1.20;;;13.30;59.90;;;;;;4793358;29;20047;-79
2023/03/01 14:21:20;;;;;;;2.70;1.33;;;13.20;59.90;;;;;;4807786;29;20042;-79
2023/03/01 14:23:46;;;;;;;1.88;1.20;;;13.30;60.00;;;;;;4809804;29;20065;-77
2023/03/01 14:26:12;;;;;;;3.13;1.38;;;13.30;60.00;;;;;;4793593;29;20097;-79
2023/03/01 14:28:39;;;;;;;9.10;6.97;;;13.30;59.70;;;;;;4809365;29;20090;-80
2023/03/01 14:31:24;;;;;;;9.88;7.18;;;13.40;58.10;;;;;;4809807;29;20135;-79
2023/03/01 14:33:56;;;;;;;12.77;7.30;;;13.40;56.90;;;;;;4793392;29;20047;-80
2023/03/01 14:36:28;;;;;;;11.85;8.52;;;13.40;55.80;;;;;;4793449;29;20043;-79
2023/03/01 14:38:54;;;;;;;9.27;8.20;;;13.40;53.90;;;;;;4809670;29;20104;-76
2023/03/01 14:41:27;;;;;;;10.45;7.97;;;13.50;51.70;;;;;;4810020;29;20051;-81
2023/03/01 14:44:04;;;;;;;10.15;8.65;;;13.50;50.80;;;;;;4793018;29;20082;-76
2023/03/01 14:46:37;;;;;;;11.63;7.93;;;13.40;50.30;;;;;;4791389;29;20058;-73
2023/03/01 14:49:10;;;;;;;13.13;9.00;;;13.40;50.50;;;;;;4809163;29;20134;-76
2023/03/01 14:51:41;;;;;;;10.90;8.73;;;13.30;50.50;;;;;;4809413;29;20119;-77
2023/03/01 14:54:24;;;;;;;14.05;9.18;;;13.30;50.20;;;;;;4808429;29;20046;-74
2023/03/01 14:56:51;;;;;;;13.85;8.93;;;13.20;50.20;;;;;;4808714;29;20061;-75
2023/03/01 14:59:22;;;;;;;13.90;9.13;;;13.20;50.40;;;;;;4809418;29;20050;-74
2023/03/01 15:01:48;;;;;;;13.95;9.70;;;13.20;51.40;;;;;;4809335;29;20054;-73
2023/03/01 15:04:14;;;;;;;11.98;9.02;;;13.20;50.50;;;;;;4809278;29;20047;-76
2023/03/01 15:06:41;;;;;;;10.07;8.75;;;13.20;50.40;;;;;;4809870;29;20466;-76
2023/03/01 15:09:16;;;;;;;14.20;8.32;;;13.10;50.40;;;;;;4808422;29;20055;-79
2023/03/01 15:11:43;;;;;;;14.15;8.07;;;13.00;51.40;;;;;;4792930;29;20166;-77
2023/03/01 15:14:41;;;;;;;15.40;8.07;;;13.00;52.20;;;;;;4809206;29;20042;-79
2023/03/01 15:17:38;;;;;;;23.23;8.15;;;13.00;52.30;;;;;;4792756;29;20085;-79
2023/03/01 15:20:21;;;;;;;16.60;6.82;;;13.10;53.30;;;;;;4807942;29;20047;-80
2023/03/01 15:22:50;;;;;;;25.70;7.15;;;13.30;53.90;;;;;;4792577;29;20154;-81
2023/03/01 15:29:04;;;;;;;23.35;6.50;;;13.70;54.60;;;;;;4771126;29;20055;-82
2023/03/01 15:31:38;;;;;;;26.25;6.32;;;13.90;54.80;;;;;;4791491;29;20378;-78
2023/03/01 15:34:21;;;;;;;22.67;5.22;;;14.00;55.10;;;;;;4805013;29;20054;-76
2023/03/01 15:36:50;;;;;;;18.77;5.57;;;14.10;55.10;;;;;;4808820;29;20358;-79
2023/03/01 15:39:32;;;;;;;25.02;5.20;;;14.10;55.00;;;;;;4792259;29;20047;-77
2023/03/01 15:41:59;;;;;;;27.30;5.05;;;14.20;55.20;;;;;;4808105;29;20054;-77
2023/03/01 15:44:31;;;;;;;19.50;4.15;;;14.20;55.20;;;;;;4808085;29;20063;-76
2023/03/01 15:46:58;;;;;;;18.20;3.88;;;14.30;55.30;;;;;;4792572;29;20081;-75
2023/03/01 15:49:24;;;;;;;17.00;4.65;;;14.30;55.20;;;;;;4807614;29;20057;-75
2023/03/01 15:51:54;;;;;;;31.95;5.20;;;14.40;55.50;;;;;;4808776;29;20127;-83
2023/03/01 15:54:23;;;;;;;31.05;5.18;;;14.40;55.60;;;;;;4777734;29;20042;-78
2023/03/01 16:00:33;;;;;;;57.17;7.53;;;14.50;55.60;;;;;;4728482;29;20118;-81
2023/03/01 16:11:55;;;;;;;50.65;8.07;;;14.90;58.80;;;;;;4791518;29;20156;-81
2023/03/01 16:14:27;;;;;;;38.58;6.35;;;15.10;58.90;;;;;;4807869;29;20047;-80
2023/03/01 16:16:53;;;;;;;44.17;6.85;;;15.10;58.70;;;;;;4807395;29;20039;-80
2023/03/01 16:19:19;;;;;;;35.70;6.30;;;15.20;58.70;;;;;;4807986;29;20079;-81
2023/03/01 16:21:49;;;;;;;50.53;6.18;;;15.20;58.80;;;;;;4807870;29;20459;-82
2023/03/01 16:24:15;;;;;;;47.25;7.13;;;15.20;58.90;;;;;;4791984;29;20072;-79
2023/03/01 16:26:42;;;;;;;47.40;8.50;;;15.20;59.10;;;;;;4777272;29;20046;-80
2023/03/01 16:29:07;;;;;;;40.45;6.13;;;15.20;59.10;;;;;;4806890;29;20066;-81
2023/03/01 16:31:36;;;;;;;43.33;6.07;;;15.30;60.00;;;;;;4806605;29;20059;-81
2023/03/01 16:34:07;;;;;;;45.10;6.45;;;15.30;59.70;;;;;;4791632;29;20141;-79
2023/03/01 16:52:43;;;;;;;49.30;6.28;;;15.40;59.50;;;;;;4666504;30;20131;-79
2023/03/01 16:55:15;;;;;;;38.65;6.32;;;15.40;59.30;;;;;;4694677;30;20391;-77
2023/03/01 16:57:40;;;;;;;45.45;5.72;;;15.40;59.20;;;;;;4774142;30;20047;-77
2023/03/01 17:00:12;;;;;;;42.15;7.18;;;15.40;59.30;;;;;;4801474;29;20111;-72
2023/03/01 17:02:51;;;;;;;52.05;6.57;;;15.30;58.90;;;;;;4806749;29;20467;-78
2023/03/01 17:06:39;;;;;;;37.42;6.88;;;15.40;58.90;;;;;;4790653;29;20046;-80
2023/03/01 17:09:02;;;;;;;43.80;7.20;;;15.30;59.20;;;;;;4808730;29;20049;-79
2023/03/01 17:11:28;;;;;;;49.60;6.78;;;15.20;59.40;;;;;;4825548;29;20042;-78
2023/03/01 17:26:34;;;;;;;;;;;;;;;;;;;;;
2023/03/01 18:17:46;;;;;;;16.13;4.22;;;14.30;60.60;;;;;;5197980;24;20041;-75
2023/03/01 18:20:49;;;;;;;16.05;4.30;;;14.30;60.40;;;;;;4864544;29;20042;-75
2023/03/01 18:23:14;;;;;;;18.25;4.47;;;14.30;60.30;;;;;;4865037;29;20048;-75
2023/03/01 18:30:31;;;;;;;23.00;3.78;;;14.20;60.40;;;;;;4808089;29;20049;-79
2023/03/01 18:34:13;;;;;;;;;;;;;;;;;;;;;
2023/03/01 18:40:31;;;;;;;17.38;4.13;;;14.10;60.10;;;;;;4778776;29;20130;-75
2023/03/01 18:42:59;;;;;;;14.13;4.35;;;14.10;60.70;;;;;;4839337;29;20187;-80
2023/03/01 18:45:33;;;;;;;13.32;5.13;;;14.10;60.20;;;;;;4866329;29;20045;-84
2023/03/01 18:48:05;;;;;;;8.30;3.60;;;14.00;59.90;;;;;;4848503;29;20440;-82
2023/03/01 18:50:37;;;;;;;10.90;3.92;;;14.00;59.70;;;;;;4832466;29;20045;-83
2023/03/01 18:53:17;;;;;;;10.65;3.42;;;14.00;60.20;;;;;;4864346;29;20365;-83
2023/03/01 18:55:46;;;;;;;12.02;3.72;;;14.00;60.90;;;;;;4832695;29;20054;-84
2023/03/01 18:58:34;;;;;;;15.30;3.88;;;13.90;61.10;;;;;;4847552;29;20046;-80
2023/03/01 19:01:05;;;;;;;9.57;3.65;;;13.90;61.70;;;;;;4864424;29;20053;-79
2023/03/01 19:04:01;;;;;;;6.60;3.00;;;13.90;62.00;;;;;;4847534;29;20128;-81
2023/03/01 19:06:32;;;;;;;9.85;3.63;;;13.80;62.80;;;;;;4831639;29;20413;-83
2023/03/01 19:12:47;;;;;;;13.32;3.00;;;13.80;62.50;;;;;;4862996;29;20040;-80
2023/03/01 19:15:47;;;;;;;5.78;2.33;;;13.60;62.60;;;;;;4862341;29;20381;-81
2023/03/01 19:27:15;;;;;;;9.20;3.08;;;13.50;63.70;;;;;;4858640;29;20068;-78
2023/03/01 19:29:41;;;;;;;7.85;2.33;;;13.50;63.40;;;;;;4863701;29;20140;-78
2023/03/01 19:32:07;;;;;;;12.45;3.22;;;13.40;63.20;;;;;;4862849;29;20141;-78
2023/03/01 19:34:34;;;;;;;8.27;2.60;;;13.50;63.00;;;;;;4863429;29;20473;-77
2023/03/01 19:36:59;;;;;;;5.95;1.92;;;13.50;63.10;;;;;;4846992;29;20080;-79
2023/03/01 19:39:26;;;;;;;6.20;2.03;;;13.50;63.00;;;;;;4863746;29;20088;-80
2023/03/01 19:41:52;;;;;;;5.15;1.98;;;13.50;63.00;;;;;;4864207;29;20068;-79
2023/03/01 19:44:18;;;;;;;7.00;2.38;;;13.50;63.00;;;;;;4863634;29;20061;-80
2023/03/01 19:46:43;;;;;;;5.18;1.73;;;13.40;62.90;;;;;;4863032;29;20045;-78
2023/03/01 19:49:09;;;;;;;5.78;1.92;;;13.40;62.90;;;;;;4847497;29;20095;-80
2023/03/01 19:51:37;;;;;;;7.13;1.90;;;13.50;62.90;;;;;;4831967;29;20342;-80
2023/03/01 19:54:04;;;;;;;12.02;3.15;;;13.50;62.90;;;;;;4846722;29;20423;-79
2023/03/01 19:56:30;;;;;;;9.45;2.45;;;13.50;62.50;;;;;;4862932;29;20469;-78
2023/03/01 19:58:59;;;;;;;10.98;2.85;;;13.60;62.30;;;;;;4863356;29;20068;-77
2023/03/01 20:01:33;;;;;;;13.13;2.80;;;13.70;61.60;;;;;;4831868;29;20048;-79
2023/03/01 20:04:05;;;;;;;7.53;2.60;;;13.60;61.20;;;;;;4832612;29;20129;-78
2023/03/01 20:06:30;;;;;;;11.25;3.28;;;13.70;60.80;;;;;;4862223;29;20037;-79
2023/03/01 20:08:56;;;;;;;5.75;2.75;;;13.70;59.80;;;;;;4865469;29;20045;-78
2023/03/01 20:11:22;;;;;;;5.68;3.10;;;13.70;58.70;;;;;;4863168;29;20053;-79
2023/03/01 20:13:48;;;;;;;8.30;4.38;;;13.60;57.60;;;;;;4863184;29;20073;-78
2023/03/01 20:16:18;;;;;;;5.78;3.90;;;13.70;56.80;;;;;;4863100;29;20094;-78
2023/03/01 20:18:44;;;;;;;5.15;4.10;;;13.60;56.10;;;;;;4862767;29;20049;-77
2023/03/01 20:21:10;;;;;;;5.13;4.63;;;13.50;55.80;;;;;;4861815;29;20057;-80
2023/03/01 20:23:36;;;;;;;4.47;3.72;;;13.50;55.60;;;;;;4858234;29;20049;-78
2023/03/01 20:26:13;;;;;;;4.72;4.20;;;13.50;55.50;;;;;;4861982;29;20061;-77
2023/03/01 20:28:40;;;;;;;4.45;3.70;;;13.40;55.30;;;;;;4846434;29;20480;-77
2023/03/01 20:31:09;;;;;;;7.55;5.38;;;13.40;55.30;;;;;;4862544;29;20128;-79
2023/03/01 20:33:53;;;;;;;5.82;4.85;;;13.30;55.20;;;;;;4862409;29;20052;-80
2023/03/01 20:36:48;;;;;;;10.65;4.55;;;13.30;55.10;;;;;;4866207;29;20077;-80
2023/03/01 20:39:13;;;;;;;7.22;4.72;;;13.30;55.50;;;;;;4829531;29;20094;-80
2023/03/01 20:41:42;;;;;;;6.13;4.50;;;13.20;56.40;;;;;;4822107;29;20155;-81
2023/03/01 20:44:08;;;;;;;6.70;4.45;;;13.20;56.10;;;;;;4821659;29;20092;-81
2023/03/01 20:46:35;;;;;;;6.65;4.72;;;13.20;56.20;;;;;;4844476;29;20189;-76
2023/03/01 20:49:02;;;;;;;7.63;5.18;;;13.20;56.50;;;;;;4846159;29;20045;-76
2023/03/01 20:51:28;;;;;;;7.20;4.53;;;13.20;56.70;;;;;;4862182;29;20081;-75
2023/03/01 20:53:55;;;;;;;17.58;5.88;;;13.20;56.90;;;;;;4863716;29;20056;-74
2023/03/01 20:56:21;;;;;;;13.07;5.93;;;13.20;56.90;;;;;;4834366;29;20053;-76
2023/03/01 20:58:47;;;;;;;10.05;6.10;;;13.20;56.90;;;;;;4831772;29;20438;-76
2023/03/01 21:01:17;;;;;;;12.90;6.75;;;13.20;56.90;;;;;;4847603;29;20046;-74
2023/03/01 21:03:43;;;;;;;11.68;6.45;;;13.20;57.00;;;;;;4858808;29;20054;-75
2023/03/01 21:06:09;;;;;;;9.48;6.30;;;13.20;57.10;;;;;;4847090;29;20092;-75
2023/03/01 21:08:35;;;;;;;10.88;6.72;;;13.20;57.20;;;;;;4862296;29;20058;-75
2023/03/01 21:11:02;;;;;;;12.35;6.80;;;13.20;57.30;;;;;;4862500;29;20229;-76
2023/03/01 21:13:29;;;;;;;13.68;7.32;;;13.20;57.30;;;;;;4862088;29;20057;-73
2023/03/01 21:15:58;;;;;;;13.68;6.50;;;13.10;57.10;;;;;;4831386;29;20136;-74
2023/03/01 21:30:42;;;;;;;12.15;6.55;;;13.10;57.90;;;;;;5702839;24;20053;-72
2023/03/01 21:33:08;;;;;;;15.48;7.32;;;13.10;57.50;;;;;;4847147;29;20430;-73
2023/03/01 21:35:33;;;;;;;11.55;6.60;;;13.00;57.80;;;;;;4847655;29;20045;-72
2023/03/01 21:37:59;;;;;;;13.18;6.57;;;13.10;58.10;;;;;;4847323;29;20088;-73
2023/03/01 21:40:25;;;;;;;9.18;6.15;;;13.00;58.20;;;;;;4847051;29;20134;-72
2023/03/01 21:42:50;;;;;;;15.82;6.32;;;13.00;58.40;;;;;;4846845;29;20058;-73
2023/03/01 21:45:16;;;;;;;12.60;6.47;;;13.00;58.50;;;;;;4847337;29;20071;-72
2023/03/01 21:47:42;;;;;;;9.45;5.78;;;13.00;58.60;;;;;;4846962;29;20087;-72
2023/03/01 21:50:08;;;;;;;11.23;5.88;;;13.00;58.70;;;;;;4846991;29;20046;-73
